»·PEaware :: N755ME NV11-KTOA

N755ME :: NV11-KTOA

FLIGHT INFORMATION

Flight Status: Arrived
Operator: Privately registered:
United States
More flights under this callsign
Pilot: Michael D. (15839)
Aircraft: BEECH AIRCRAFT DEBONAIR BONANZA
(BE33)
More flights by this aircraft type
Origin: NV11 Yucca Airstrip
United States
Destination: KTOA Zamperini
United States
More flights between these airports :: More routes between these airports
Route: HEC KAYOH7
File this flight plan on PilotEdge
Remarks:
Altitude:
(Current/Filed)
8,000ft
Speed:
(Current/Filed)
140kts
Departed: 09-Jun-19 01:22 PM
Arrived: 09-Jun-19 03:05 PM
Distance/Time
Traveled:
220nm/1:43
Distance/Time
To Go:
Arrived

Flight Plot

Page will automatically refresh every two minutes.


Map Options




Map Legend


Flown Route
Filed Route
Departure Airport
Arrival Airport
Navaid (VOR, NDB)
Fix

Horizontal Profiles

Position Reports

Time Latitude Longitude Heading Altitude Ground
Speed
09-Jun-19 13:20 36.835788 -116.064215 191 7095ft 124kts
09-Jun-19 13:21 36.802785 -116.073845 191 7886ft 118kts
09-Jun-19 13:22 36.766999 -116.084174 191 8081ft 150kts
09-Jun-19 13:23 36.723856 -116.096484 191 8074ft 164kts
09-Jun-19 13:24 36.678948 -116.109257 191 8073ft 166kts
09-Jun-19 13:25 36.633710 -116.122103 191 8073ft 167kts
09-Jun-19 13:26 36.588383 -116.134959 191 8073ft 167kts
09-Jun-19 13:27 36.553580 -116.144821 191 8073ft 167kts
09-Jun-19 13:28 36.508271 -116.157648 191 8073ft 167kts
09-Jun-19 13:29 36.462860 -116.170489 191 8073ft 167kts
09-Jun-19 13:30 36.417502 -116.183301 191 8073ft 167kts
09-Jun-19 13:31 36.372210 -116.196081 191 8073ft 167kts
09-Jun-19 13:32 36.326865 -116.208862 191 8073ft 167kts
09-Jun-19 13:33 36.281428 -116.221656 191 8073ft 167kts
09-Jun-19 13:34 36.236178 -116.234383 191 8073ft 167kts
09-Jun-19 13:35 36.200421 -116.244430 191 8073ft 167kts
09-Jun-19 13:36 36.156200 -116.256844 191 8073ft 167kts
09-Jun-19 13:37 36.110765 -116.269626 191 8061ft 168kts
09-Jun-19 13:38 36.065099 -116.281304 187 8045ft 168kts
09-Jun-19 13:39 36.018799 -116.290437 187 8028ft 168kts
09-Jun-19 13:40 35.972500 -116.299661 187 8010ft 169kts
09-Jun-19 13:41 35.926068 -116.308836 183 7994ft 168kts
09-Jun-19 13:42 35.879185 -116.311442 180 7983ft 168kts
09-Jun-19 13:43 35.832341 -116.314020 180 7972ft 168kts
09-Jun-19 13:44 35.787021 -116.308129 153 7969ft 165kts
09-Jun-19 13:45 35.744396 -116.286671 156 7972ft 165kts
09-Jun-19 13:46 35.701211 -116.266916 157 7972ft 166kts
09-Jun-19 13:48 35.657891 -116.247439 157 7972ft 166kts
09-Jun-19 13:49 35.629467 -116.234673 157 7972ft 166kts
09-Jun-19 13:50 35.608851 -116.225420 157 7972ft 166kts
09-Jun-19 13:51 35.565478 -116.205969 157 7972ft 166kts
09-Jun-19 13:52 35.522069 -116.186525 157 7972ft 166kts
09-Jun-19 13:53 35.478742 -116.167140 157 7972ft 166kts
09-Jun-19 13:54 35.454032 -116.156094 157 7972ft 166kts
09-Jun-19 13:55 35.410609 -116.136701 157 7972ft 166kts
09-Jun-19 13:56 35.401487 -116.132630 157 7972ft 166kts
09-Jun-19 13:57 35.401487 -116.132630 157 7972ft 166kts
09-Jun-19 13:58 35.377563 -116.121957 157 7972ft 166kts
09-Jun-19 13:59 35.334595 -116.102806 157 7972ft 166kts
09-Jun-19 14:00 35.291168 -116.083472 157 7972ft 166kts
09-Jun-19 14:01 35.249257 -116.101848 211 7973ft 170kts
09-Jun-19 14:02 35.209360 -116.132930 212 7973ft 170kts
09-Jun-19 14:03 35.169653 -116.164902 212 7973ft 170kts
09-Jun-19 14:04 35.130011 -116.196783 212 7973ft 170kts
09-Jun-19 14:05 35.090429 -116.228569 212 7973ft 170kts
09-Jun-19 14:06 35.050687 -116.260445 212 7973ft 170kts
09-Jun-19 14:06 35.017609 -116.286963 212 7972ft 171kts
09-Jun-19 14:08 34.970794 -116.324216 211 7955ft 173kts
09-Jun-19 14:09 34.930271 -116.356170 211 7945ft 174kts
09-Jun-19 14:09 34.896384 -116.383242 211 7935ft 175kts
09-Jun-19 14:11 34.849355 -116.421186 211 7924ft 171kts
09-Jun-19 14:11 34.816425 -116.447837 211 7925ft 171kts
09-Jun-19 14:12 34.778813 -116.483312 227 7927ft 172kts
09-Jun-19 14:13 34.745793 -116.525639 223 7927ft 173kts
09-Jun-19 14:15 34.706138 -116.573909 224 7927ft 172kts
09-Jun-19 14:15 34.677879 -116.608354 224 7929ft 172kts
09-Jun-19 14:16 34.656781 -116.634055 224 7928ft 172kts
09-Jun-19 14:17 34.633048 -116.662862 223 7926ft 172kts
09-Jun-19 14:18 34.599038 -116.703944 223 7925ft 172kts
09-Jun-19 14:19 34.565055 -116.745151 223 7926ft 172kts
09-Jun-19 14:20 34.531058 -116.786409 223 7926ft 172kts
09-Jun-19 14:21 34.497175 -116.827462 223 7925ft 172kts
09-Jun-19 14:22 34.463262 -116.868528 223 7926ft 172kts
09-Jun-19 14:23 34.429236 -116.909631 221 7917ft 173kts
09-Jun-19 14:24 34.393688 -116.948837 224 7892ft 173kts
09-Jun-19 14:25 34.359763 -116.990808 225 7855ft 173kts
09-Jun-19 14:26 34.325964 -117.032500 225 7809ft 173kts
09-Jun-19 14:27 34.292771 -117.073642 224 7799ft 166kts
09-Jun-19 14:28 34.260038 -117.109462 226 7786ft 156kts
09-Jun-19 14:29 34.226045 -117.133435 178 7799ft 152kts
09-Jun-19 14:30 34.183758 -117.131598 187 7795ft 152kts
09-Jun-19 14:31 34.141660 -117.137492 187 7797ft 152kts
09-Jun-19 14:32 34.099772 -117.143079 186 7797ft 152kts
09-Jun-19 14:33 34.058874 -117.148417 187 7797ft 152kts
09-Jun-19 14:34 34.015227 -117.154330 178 7802ft 162kts
09-Jun-19 14:35 33.970025 -117.160770 183 7801ft 164kts
09-Jun-19 14:36 33.925089 -117.167904 183 7800ft 161kts
09-Jun-19 14:37 33.880851 -117.174957 183 7801ft 160kts
09-Jun-19 14:38 33.836821 -117.182025 183 7803ft 159kts
09-Jun-19 14:39 33.793295 -117.190636 203 7790ft 163kts
09-Jun-19 14:40 33.782598 -117.239676 262 7806ft 172kts
09-Jun-19 14:41 33.778055 -117.297226 262 7805ft 172kts
09-Jun-19 14:42 33.773800 -117.354588 266 7805ft 173kts
09-Jun-19 14:43 33.773217 -117.412474 269 7802ft 172kts
09-Jun-19 14:44 33.775295 -117.469871 269 7795ft 170kts
09-Jun-19 14:45 33.778042 -117.526056 269 7789ft 167kts
09-Jun-19 14:46 33.778696 -117.581778 265 7601ft 172kts
09-Jun-19 14:47 33.779955 -117.641090 269 7019ft 180kts
09-Jun-19 14:48 33.781304 -117.701310 267 6429ft 180kts
09-Jun-19 14:49 33.781883 -117.761852 267 5835ft 180kts
09-Jun-19 14:50 33.782246 -117.822350 267 5242ft 181kts
09-Jun-19 14:51 33.782535 -117.882683 267 4684ft 180kts
09-Jun-19 14:52 33.781826 -117.942668 265 4165ft 179kts
09-Jun-19 14:53 33.780838 -118.002123 265 3793ft 172kts
09-Jun-19 14:54 33.780496 -118.058077 276 3782ft 167kts
09-Jun-19 14:55 33.794410 -118.110096 265 3820ft 159kts
09-Jun-19 14:56 33.789156 -118.153512 254 3071ft 100kts
09-Jun-19 14:57 33.782972 -118.184087 249 1463ft 94kts
09-Jun-19 14:58 33.782146 -118.209798 273 1129ft 73kts
09-Jun-19 14:59 33.784754 -118.233652 276 1083ft 70kts
09-Jun-19 15:00 33.787029 -118.256932 261 1017ft 71kts
09-Jun-19 15:01 33.786819 -118.280923 266 1026ft 73kts
09-Jun-19 15:02 33.788249 -118.307190 273 835ft 78kts
09-Jun-19 15:03 33.796057 -118.327683 305 255ft 58kts
09-Jun-19 15:04 33.803206 -118.338518 310 96ft 10kts
09-Jun-19 15:05 33.803900 -118.339467 295 96ft 0kts
09-Jun-19 15:06 33.803900 -118.339467 295 96ft 0kts
09-Jun-19 15:07 33.803900 -118.339467 295 96ft 0kts
09-Jun-19 15:08 33.803900 -118.339467 295 96ft 0kts
09-Jun-19 15:09 33.803900 -118.339467 295 96ft 0kts

Navigation Log

Ident Type
Flight plan parsing failed, navigation log unavailable